createdAt,value
2019-04-26T00:01:33.863Z,13.63
2019-04-26T00:04:06.644Z,14.37
2019-04-26T00:06:40.331Z,14.60
2019-04-26T00:09:29.963Z,14.83
2019-04-26T00:12:11.194Z,13.97
2019-04-26T00:14:58.682Z,15.33
2019-04-26T00:17:35.835Z,16.60
2019-04-26T00:20:11.460Z,16.27
2019-04-26T00:22:43.883Z,17.33
2019-04-26T00:25:16.537Z,14.77
2019-04-26T00:27:49.124Z,15.20
2019-04-26T00:30:21.364Z,15.67
2019-04-26T00:32:53.908Z,14.70
2019-04-26T00:35:26.131Z,13.37
2019-04-26T00:37:58.604Z,14.93
2019-04-26T00:40:31.363Z,15.23
2019-04-26T00:43:04.023Z,14.70
2019-04-26T00:45:37.473Z,13.30
2019-04-26T00:48:11.283Z,14.00
2019-04-26T00:50:44.534Z,13.00
2019-04-26T00:53:17.885Z,15.40
2019-04-26T00:55:50.603Z,12.83
2019-04-26T00:58:24.408Z,14.13
2019-04-26T01:00:56.963Z,14.30
2019-04-26T01:03:29.533Z,14.27
2019-04-26T01:06:03.565Z,13.27
2019-04-26T01:08:37.003Z,14.40
2019-04-26T01:11:09.273Z,16.87
2019-04-26T01:13:45.483Z,14.70
2019-04-26T01:16:18.369Z,15.10
2019-04-26T01:18:51.766Z,14.37
2019-04-26T01:21:26.861Z,13.57
2019-04-26T01:24:01.172Z,13.37
2019-04-26T01:26:34.323Z,14.57
2019-04-26T01:29:10.662Z,14.00
2019-04-26T01:31:49.442Z,13.90
2019-04-26T01:34:22.403Z,14.13
2019-04-26T01:36:55.913Z,13.60
2019-04-26T01:39:29.043Z,14.33
2019-04-26T01:42:20.846Z,13.33
2019-04-26T01:45:03.005Z,12.37
2019-04-26T01:47:36.015Z,13.57
2019-04-26T01:50:08.943Z,13.77
2019-04-26T01:52:43.243Z,12.97
2019-04-26T01:55:16.531Z,14.77
2019-04-26T01:57:49.194Z,15.00
2019-04-26T02:00:23.929Z,15.77
2019-04-26T02:02:59.233Z,14.07
2019-04-26T02:05:32.038Z,14.17
2019-04-26T02:08:04.294Z,14.13
2019-04-26T02:10:36.633Z,14.67
2019-04-26T02:13:09.055Z,15.17
2019-04-26T02:15:45.282Z,14.47
2019-04-26T02:18:18.166Z,13.67
2019-04-26T02:20:58.603Z,14.50
2019-04-26T02:23:32.884Z,13.38
2019-04-26T02:26:25.540Z,12.67
2019-04-26T02:28:58.553Z,14.03
2019-04-26T02:31:33.236Z,15.27
2019-04-26T02:34:05.563Z,14.83
2019-04-26T02:36:56.382Z,14.80
2019-04-26T02:39:18.934Z,13.67
2019-04-26T02:41:54.393Z,14.87
2019-04-26T02:44:31.332Z,15.43
2019-04-26T02:47:43.885Z,16.97
2019-04-26T02:50:18.956Z,16.10
2019-04-26T02:53:07.087Z,15.63
2019-04-26T02:56:04.003Z,15.83
2019-04-26T02:58:56.603Z,15.47
2019-04-26T03:01:29.965Z,19.17
2019-04-26T03:04:03.648Z,25.23
2019-04-26T03:06:37.373Z,37.17
2019-04-26T03:09:12.547Z,33.43
2019-04-26T03:11:57.444Z,29.07
2019-04-26T03:14:39.785Z,25.67
2019-04-26T03:17:30.729Z,19.70
2019-04-26T03:22:51.194Z,14.50
2019-04-26T03:25:31.302Z,14.60
2019-04-26T03:28:36.904Z,17.93
2019-04-26T03:31:15.653Z,18.97
2019-04-26T03:33:57.387Z,17.27
2019-04-26T03:36:47.293Z,14.83
2019-04-26T03:39:30.819Z,14.17
2019-04-26T03:42:25.524Z,14.53
2019-04-26T03:45:01.345Z,14.90
2019-04-26T03:47:42.065Z,15.87
2019-04-26T03:50:17.335Z,15.83
2019-04-26T03:53:07.363Z,14.63
2019-04-26T03:55:45.472Z,17.00
2019-04-26T03:58:26.284Z,15.13
2019-04-26T04:01:02.153Z,15.23
2019-04-26T04:03:48.164Z,16.47
2019-04-26T04:06:28.243Z,15.20
2019-04-26T04:09:05.021Z,14.60
2019-04-26T04:12:10.157Z,14.73
2019-04-26T04:14:37.709Z,14.80
2019-04-26T04:17:23.495Z,14.83
2019-04-26T04:20:18.848Z,15.60
2019-04-26T04:23:18.514Z,15.57
2019-04-26T04:25:52.134Z,14.60
2019-04-26T04:28:39.837Z,14.27
2019-04-26T04:31:33.404Z,13.63
2019-04-26T04:34:24.695Z,14.03
2019-04-26T04:36:59.823Z,13.63
2019-04-26T04:39:38.624Z,13.50
2019-04-26T04:42:25.335Z,12.17
2019-04-26T04:45:21.245Z,11.90
2019-04-26T04:48:16.874Z,12.13
2019-04-26T04:51:09.034Z,12.70
2019-04-26T04:54:09.424Z,11.47
2019-04-26T04:56:51.942Z,12.15
2019-04-26T04:59:39.843Z,12.10
2019-04-26T05:02:29.683Z,11.33
2019-04-26T05:05:31.960Z,11.03
2019-04-26T05:08:16.930Z,11.43
2019-04-26T05:10:56.003Z,11.00
2019-04-26T05:13:34.323Z,9.93
2019-04-26T05:16:23.952Z,11.03
2019-04-26T05:19:28.450Z,10.27
2019-04-26T05:22:07.643Z,11.30
2019-04-26T05:25:07.175Z,11.38
2019-04-26T05:28:02.243Z,9.87
2019-04-26T05:31:17.036Z,10.10
2019-04-26T05:34:26.848Z,10.93
2019-04-26T05:37:24.346Z,9.47
2019-04-26T05:40:34.441Z,9.30
2019-04-26T05:43:26.503Z,9.85
2019-04-26T05:46:50.227Z,9.73
2019-04-26T05:49:55.870Z,9.60
2019-04-26T05:52:51.822Z,9.90
2019-04-26T05:56:17.883Z,10.23
2019-04-26T05:59:03.132Z,10.20
2019-04-26T06:01:59.026Z,9.30
2019-04-26T06:04:55.217Z,9.67
2019-04-26T06:07:50.808Z,9.83
2019-04-26T06:10:38.843Z,9.43
2019-04-26T06:13:45.408Z,9.07
2019-04-26T06:16:35.024Z,9.80
2019-04-26T06:19:29.933Z,8.90
2019-04-26T06:22:06.071Z,9.33
2019-04-26T06:24:58.764Z,8.80
2019-04-26T06:27:42.914Z,8.90
2019-04-26T06:30:25.929Z,8.53
2019-04-26T06:33:10.723Z,8.67
2019-04-26T06:35:45.407Z,7.97
2019-04-26T06:38:29.368Z,8.30
2019-04-26T06:41:39.513Z,8.43
2019-04-26T06:44:23.243Z,8.70
2019-04-26T06:47:16.283Z,8.97
2019-04-26T06:50:23.313Z,8.73
2019-04-26T06:53:16.153Z,8.57
2019-04-26T06:56:03.213Z,8.17
2019-04-26T06:58:48.284Z,8.00
2019-04-26T07:01:36.383Z,7.80
2019-04-26T07:04:17.404Z,7.63
2019-04-26T07:06:56.294Z,7.20
2019-04-26T07:09:34.876Z,7.27
2019-04-26T07:12:35.573Z,7.17
2019-04-26T07:15:27.995Z,7.07
2019-04-26T07:18:19.051Z,6.50
2019-04-26T07:21:09.173Z,6.55
2019-04-26T07:23:58.885Z,6.87
2019-04-26T07:26:44.026Z,6.15
2019-04-26T07:29:40.064Z,7.10
2019-04-26T07:32:40.505Z,6.70
2019-04-26T07:35:22.334Z,6.50
2019-04-26T07:38:14.884Z,6.37
2019-04-26T07:41:15.723Z,6.37
2019-04-26T07:43:53.633Z,6.20
2019-04-26T07:46:42.171Z,5.87
2019-04-26T07:49:29.983Z,6.37
2019-04-26T07:52:08.843Z,6.13
2019-04-26T07:54:47.964Z,6.80
2019-04-26T07:57:40.934Z,6.13
2019-04-26T08:00:20.644Z,5.97
2019-04-26T08:02:58.474Z,5.55
2019-04-26T08:05:36.244Z,5.80
2019-04-26T08:08:11.126Z,5.53
2019-04-26T08:10:46.965Z,5.90
2019-04-26T08:13:21.087Z,5.80
2019-04-26T08:15:58.793Z,6.20
2019-04-26T08:18:36.184Z,5.63
2019-04-26T08:21:16.885Z,6.10
2019-04-26T08:26:31.934Z,5.77
2019-04-26T08:31:42.213Z,5.67
2019-04-26T08:34:21.116Z,5.93
2019-04-26T08:37:08.085Z,6.00
2019-04-26T08:39:45.689Z,5.50
2019-04-26T08:42:20.082Z,5.60
2019-04-26T08:44:59.083Z,5.40
2019-04-26T08:47:33.459Z,5.40
2019-04-26T08:50:13.029Z,5.73
2019-04-26T08:52:44.953Z,5.30
2019-04-26T08:55:18.932Z,5.07
2019-04-26T08:57:53.330Z,5.13
2019-04-26T09:00:30.403Z,5.37
2019-04-26T09:03:12.050Z,5.40
2019-04-26T09:06:03.923Z,5.15
2019-04-26T09:08:39.208Z,4.23
2019-04-26T09:11:25.352Z,4.57
2019-04-26T09:13:50.602Z,5.00
2019-04-26T09:16:23.443Z,4.47
2019-04-26T09:18:59.418Z,4.65
2019-04-26T09:21:35.413Z,4.95
2019-04-26T09:24:15.565Z,4.87
2019-04-26T09:26:49.903Z,4.45
2019-04-26T09:29:32.873Z,4.17
2019-04-26T09:32:09.875Z,4.12
2019-04-26T09:34:43.623Z,4.47
2019-04-26T09:37:16.444Z,4.47
2019-04-26T09:39:48.683Z,4.90
2019-04-26T09:42:28.873Z,5.13
2019-04-26T09:45:02.943Z,3.83
2019-04-26T09:47:38.244Z,4.30
2019-04-26T09:50:17.062Z,4.03
2019-04-26T09:52:51.473Z,4.30
2019-04-26T09:55:34.752Z,3.73
2019-04-26T09:57:58.363Z,3.70
2019-04-26T10:00:31.543Z,4.53
2019-04-26T10:03:09.516Z,3.77
2019-04-26T10:05:40.363Z,3.87
2019-04-26T10:08:14.469Z,3.60
2019-04-26T10:10:47.035Z,3.93
2019-04-26T10:13:24.322Z,4.03
2019-04-26T10:16:04.425Z,3.42
2019-04-26T10:18:37.963Z,3.80
2019-04-26T10:21:10.125Z,3.03
2019-04-26T10:23:43.613Z,2.95
2019-04-26T10:26:15.934Z,2.72
2019-04-26T10:28:50.601Z,2.40
2019-04-26T10:31:22.695Z,2.80
2019-04-26T10:33:55.613Z,3.20
2019-04-26T10:36:30.105Z,3.20
2019-04-26T10:39:02.295Z,3.20
2019-04-26T10:41:36.315Z,3.00
2019-04-26T10:44:09.913Z,3.45
2019-04-26T10:46:54.818Z,2.52
2019-04-26T10:49:35.803Z,2.60
2019-04-26T10:52:11.951Z,2.60
2019-04-26T10:54:49.413Z,3.05
2019-04-26T10:57:32.603Z,2.90
2019-04-26T11:00:08.063Z,3.05
2019-04-26T11:02:40.753Z,3.17
2019-04-26T11:05:18.339Z,2.75
2019-04-26T11:07:47.433Z,2.98
2019-04-26T11:10:20.133Z,2.95
2019-04-26T11:12:52.323Z,3.27
2019-04-26T11:15:24.944Z,3.17
2019-04-26T11:17:57.313Z,3.33
2019-04-26T11:20:29.523Z,3.13
2019-04-26T11:23:01.803Z,3.20
2019-04-26T11:25:38.531Z,3.50
2019-04-26T11:28:11.222Z,3.80
2019-04-26T11:30:44.332Z,3.17
2019-04-26T11:33:16.653Z,3.07
2019-04-26T11:35:49.474Z,3.12
2019-04-26T11:38:22.597Z,3.47
2019-04-26T11:41:05.936Z,3.40
2019-04-26T11:43:29.143Z,3.80
2019-04-26T11:46:04.674Z,3.15
2019-04-26T11:48:35.723Z,3.50
2019-04-26T11:51:08.204Z,2.90
2019-04-26T11:53:44.150Z,2.98
2019-04-26T11:56:14.483Z,2.37
2019-04-26T11:58:46.703Z,3.10
2019-04-26T12:01:20.743Z,2.50
2019-04-26T12:03:55.661Z,1.80
2019-04-26T12:06:34.003Z,2.10
2019-04-26T12:09:11.074Z,2.00
2019-04-26T12:11:49.346Z,2.10
2019-04-26T12:14:20.328Z,2.52
2019-04-26T12:16:55.202Z,2.40
2019-04-26T12:19:25.644Z,2.40
2019-04-26T12:21:58.083Z,2.70
2019-04-26T12:24:34.297Z,2.60
2019-04-26T12:27:04.641Z,2.33
2019-04-26T12:29:36.875Z,2.52
2019-04-26T12:32:09.394Z,2.30
2019-04-26T12:34:41.544Z,2.52
2019-04-26T12:37:19.873Z,2.47
2019-04-26T12:39:49.724Z,2.72
2019-04-26T12:42:22.083Z,2.33
2019-04-26T12:45:16.702Z,2.83
2019-04-26T12:47:56.877Z,2.37
2019-04-26T12:50:29.463Z,2.35
2019-04-26T12:53:03.324Z,2.85
2019-04-26T12:55:35.603Z,2.72
2019-04-26T12:58:11.035Z,2.50
2019-04-26T13:00:53.345Z,3.08
2019-04-26T13:03:20.429Z,2.65
2019-04-26T13:05:57.656Z,2.60
2019-04-26T13:08:26.143Z,2.75
2019-04-26T13:11:14.953Z,2.37
2019-04-26T13:13:46.124Z,2.47
2019-04-26T13:16:21.591Z,2.60
2019-04-26T13:18:54.375Z,2.92
2019-04-26T13:21:26.762Z,2.72
2019-04-26T13:24:00.304Z,2.80
2019-04-26T13:26:34.788Z,2.40
2019-04-26T13:29:14.322Z,2.90
2019-04-26T13:31:46.636Z,2.40
2019-04-26T13:34:19.165Z,1.90
2019-04-26T13:36:51.563Z,2.77
2019-04-26T13:39:24.003Z,2.62
2019-04-26T13:42:04.364Z,2.40
2019-04-26T13:44:49.763Z,2.42
2019-04-26T13:47:29.523Z,2.95
2019-04-26T13:50:03.563Z,3.33
2019-04-26T13:52:36.473Z,3.00
2019-04-26T13:55:09.114Z,3.05
2019-04-26T13:57:44.618Z,2.72
2019-04-26T14:00:17.473Z,2.83
2019-04-26T14:02:50.054Z,2.50
2019-04-26T14:05:22.626Z,2.95
2019-04-26T14:07:54.911Z,3.00
2019-04-26T14:10:27.724Z,3.00
2019-04-26T14:13:00.254Z,2.70
2019-04-26T14:15:32.765Z,3.25
2019-04-26T14:18:05.352Z,3.12
2019-04-26T14:20:38.243Z,3.08
2019-04-26T14:23:15.427Z,3.15
2019-04-26T14:25:48.603Z,3.30
2019-04-26T14:28:23.941Z,3.00
2019-04-26T14:30:58.503Z,3.23
2019-04-26T14:33:32.258Z,3.33
2019-04-26T14:36:11.335Z,3.63
2019-04-26T14:38:40.190Z,3.53
2019-04-26T14:41:13.556Z,3.43
2019-04-26T14:43:47.135Z,3.37
2019-04-26T14:46:22.747Z,3.37
2019-04-26T14:49:01.458Z,3.63
2019-04-26T14:51:28.399Z,3.10
2019-04-26T14:54:01.083Z,3.13
2019-04-26T14:56:33.963Z,3.50
2019-04-26T14:59:08.356Z,4.27
2019-04-26T15:01:47.963Z,3.83
2019-04-26T15:04:41.942Z,3.55
2019-04-26T15:07:14.593Z,3.63
2019-04-26T15:09:47.333Z,3.50
2019-04-26T15:12:20.292Z,4.03
2019-04-26T15:14:55.690Z,3.67
2019-04-26T15:17:27.724Z,4.20
2019-04-26T15:20:00.102Z,3.73
2019-04-26T15:22:33.017Z,3.57
2019-04-26T15:25:07.644Z,3.37
2019-04-26T15:27:42.121Z,3.33
2019-04-26T15:30:14.523Z,4.03
2019-04-26T15:32:47.513Z,3.87
2019-04-26T15:35:19.753Z,3.30
2019-04-26T15:37:53.446Z,3.87
2019-04-26T15:40:31.868Z,3.60
2019-04-26T15:43:14.315Z,3.93
2019-04-26T15:45:44.813Z,3.52
2019-04-26T15:48:20.246Z,3.27
2019-04-26T15:50:57.113Z,4.57
2019-04-26T15:53:29.603Z,3.57
2019-04-26T15:56:02.569Z,4.50
2019-04-26T15:58:38.658Z,3.80
2019-04-26T16:01:10.840Z,4.10
2019-04-26T16:03:44.574Z,3.90
2019-04-26T16:06:18.003Z,4.37
2019-04-26T16:08:52.051Z,4.00
2019-04-26T16:11:24.663Z,3.70
2019-04-26T16:13:57.393Z,4.20
2019-04-26T16:16:32.968Z,4.33
2019-04-26T16:19:05.042Z,4.00
2019-04-26T16:21:37.593Z,4.20
2019-04-26T16:24:09.913Z,4.47
2019-04-26T16:26:49.770Z,4.07
2019-04-26T16:29:37.385Z,4.17
2019-04-26T16:32:28.186Z,4.33
2019-04-26T16:35:05.953Z,4.60
2019-04-26T16:37:39.403Z,4.27
2019-04-26T16:40:13.705Z,4.73
2019-04-26T16:42:49.674Z,5.23
2019-04-26T16:45:22.603Z,3.87
2019-04-26T16:47:55.213Z,4.63
2019-04-26T16:50:31.555Z,5.53
2019-04-26T17:07:58.821Z,5.13
2019-04-26T17:10:32.893Z,4.40
2019-04-26T17:13:05.423Z,5.17
2019-04-26T17:15:38.203Z,5.00
2019-04-26T17:18:10.442Z,5.23
2019-04-26T17:20:44.929Z,5.07
2019-04-26T17:23:23.950Z,4.97
2019-04-26T17:26:14.762Z,4.70
2019-04-26T17:28:47.163Z,5.07
2019-04-26T17:31:19.392Z,4.67
2019-04-26T17:33:52.394Z,6.57
2019-04-26T17:36:24.602Z,5.70
2019-04-26T17:38:58.053Z,6.40
2019-04-26T17:41:31.069Z,6.13
2019-04-26T17:44:10.654Z,6.00
2019-04-26T17:46:38.404Z,7.13
2019-04-26T17:49:11.112Z,8.10
2019-04-26T17:51:44.454Z,8.40
2019-04-26T17:54:41.029Z,6.87
2019-04-26T17:56:51.538Z,7.00
2019-04-26T17:59:33.523Z,7.30
2019-04-26T18:02:01.187Z,6.93
2019-04-26T18:04:36.644Z,7.10
2019-04-26T18:07:33.867Z,6.20
2019-04-26T18:09:44.691Z,6.40
2019-04-26T18:12:15.302Z,5.37
2019-04-26T18:14:47.641Z,5.63
2019-04-26T18:17:33.060Z,9.77
2019-04-26T18:20:13.762Z,10.17
2019-04-26T18:23:03.501Z,13.33
2019-04-26T18:25:37.720Z,9.60
2019-04-26T18:28:14.661Z,10.43
2019-04-26T18:30:47.592Z,8.63
2019-04-26T18:33:22.447Z,8.90
2019-04-26T18:35:57.394Z,7.60
2019-04-26T18:38:29.363Z,9.50
2019-04-26T18:41:03.668Z,8.20
2019-04-26T18:43:36.364Z,7.20
2019-04-26T18:46:13.723Z,8.13
2019-04-26T18:48:46.053Z,8.50
2019-04-26T18:51:18.400Z,8.63
2019-04-26T18:53:53.171Z,8.13
2019-04-26T18:56:25.950Z,9.30
2019-04-26T18:58:58.720Z,7.43
2019-04-26T19:01:38.006Z,8.13
2019-04-26T19:04:12.580Z,7.77
2019-04-26T19:06:42.366Z,7.63
2019-04-26T19:09:17.270Z,8.10
2019-04-26T19:11:49.986Z,8.43
2019-04-26T19:14:31.657Z,7.73
2019-04-26T19:17:26.073Z,7.80
2019-04-26T19:19:58.990Z,8.47
2019-04-26T19:22:34.452Z,8.70
2019-04-26T19:25:19.094Z,8.47
2019-04-26T19:27:49.598Z,8.03
2019-04-26T19:30:21.611Z,12.10
2019-04-26T19:32:54.670Z,9.23
2019-04-26T19:35:27.071Z,9.00
2019-04-26T19:38:03.135Z,8.47
2019-04-26T19:40:39.306Z,8.40
2019-04-26T19:43:12.633Z,8.37
2019-04-26T19:45:47.860Z,9.53
2019-04-26T19:48:32.812Z,9.67
2019-04-26T19:51:27.011Z,9.83
2019-04-26T19:54:17.870Z,9.30
2019-04-26T19:56:52.141Z,10.60
2019-04-26T19:59:27.495Z,9.60
2019-04-26T20:01:58.880Z,9.47
2019-04-26T20:04:34.091Z,9.23
2019-04-26T20:07:06.750Z,9.60
2019-04-26T20:09:39.140Z,9.83
2019-04-26T20:12:12.197Z,10.50
2019-04-26T20:14:50.955Z,9.57
2019-04-26T20:17:20.160Z,10.13
2019-04-26T20:19:54.495Z,9.47
2019-04-26T20:22:46.770Z,9.17
2019-04-26T20:25:19.790Z,9.77
2019-04-26T20:27:53.816Z,10.73
2019-04-26T20:30:43.480Z,9.93
2019-04-26T20:33:16.899Z,10.30
2019-04-26T20:35:52.010Z,9.40
2019-04-26T20:38:24.770Z,10.27
2019-04-26T20:40:57.060Z,11.13
2019-04-26T20:43:29.384Z,10.57
2019-04-26T20:46:12.411Z,11.23
2019-04-26T20:48:35.511Z,9.90
2019-04-26T20:51:10.897Z,10.30
2019-04-26T20:53:43.829Z,10.20
2019-04-26T20:56:18.195Z,9.53
2019-04-26T20:58:50.332Z,9.67
2019-04-26T21:01:23.199Z,9.07
2019-04-26T21:03:55.541Z,10.57
2019-04-26T21:06:29.375Z,10.67
2019-04-26T21:09:03.337Z,10.77
2019-04-26T21:11:38.960Z,10.60
2019-04-26T21:14:12.446Z,10.77
2019-04-26T21:16:49.378Z,9.23
2019-04-26T21:19:20.129Z,9.57
2019-04-26T21:21:53.269Z,10.47
2019-04-26T21:24:27.591Z,10.00
2019-04-26T21:27:15.719Z,11.70
2019-04-26T21:30:06.890Z,10.97
2019-04-26T21:32:59.331Z,12.47
2019-04-26T21:35:36.230Z,12.83
2019-04-26T21:38:29.625Z,14.10
2019-04-26T21:41:11.404Z,14.27
2019-04-26T21:43:43.807Z,15.23
2019-04-26T21:46:19.228Z,15.87
2019-04-26T21:48:50.121Z,17.37
2019-04-26T21:51:22.954Z,16.63
2019-04-26T21:53:55.413Z,15.63
2019-04-26T21:56:27.570Z,14.97
2019-04-26T21:58:59.830Z,11.67
2019-04-26T22:01:33.067Z,11.77
2019-04-26T22:04:07.300Z,11.33
2019-04-26T22:06:39.440Z,11.37
2019-04-26T22:09:21.603Z,11.77
2019-04-26T22:11:56.445Z,14.17
2019-04-26T22:14:30.020Z,13.33
2019-04-26T22:17:10.352Z,14.50
2019-04-26T22:19:44.370Z,9.40
2019-04-26T22:32:06.352Z,12.55
2019-04-26T22:34:41.404Z,12.77
2019-04-26T22:37:12.732Z,12.70
2019-04-26T22:39:44.454Z,12.50
2019-04-26T22:42:16.213Z,12.30
2019-04-26T22:44:53.921Z,12.27
2019-04-26T22:47:42.727Z,12.90
2019-04-26T22:53:36.169Z,11.90
2019-04-26T22:56:07.634Z,11.57
2019-04-26T22:58:39.397Z,11.70
2019-04-26T23:01:11.347Z,12.07
2019-04-26T23:03:46.276Z,11.37
2019-04-26T23:06:16.840Z,11.10
2019-04-26T23:08:48.526Z,11.87
2019-04-26T23:11:20.106Z,11.47
2019-04-26T23:53:54.967Z,11.17
2019-04-26T23:56:26.808Z,12.37
2019-04-26T23:58:58.684Z,11.50
